createdAt,value
2019-04-21T00:01:00.423Z,41.8433
2019-04-21T00:02:03.374Z,42.1302
2019-04-21T00:03:10.065Z,41.8921
2019-04-21T00:04:24.783Z,41.9944
2019-04-21T00:05:40.226Z,42.0890
2019-04-21T00:06:48.539Z,42.3285
2019-04-21T00:08:05.145Z,42.0951
2019-04-21T00:09:12.826Z,42.5391
2019-04-21T00:10:16.832Z,42.4475
2019-04-21T00:11:26.393Z,42.6581
2019-04-21T00:12:28.444Z,42.6902
2019-04-21T00:13:32.935Z,42.9511
2019-04-21T00:14:42.512Z,42.7771
2019-04-21T00:15:40.732Z,43.3616
2019-04-21T00:16:52.097Z,43.6774
2019-04-21T00:17:56.033Z,43.9704
2019-04-21T00:19:08.409Z,44.1764
2019-04-21T00:20:17.777Z,44.9226
2019-04-21T00:21:25.604Z,44.7578
2019-04-21T00:22:34.248Z,45.0416
2019-04-21T00:23:41.234Z,45.2384
2019-04-21T00:24:50.684Z,45.5192
2019-04-21T00:25:59.627Z,45.6916
2019-04-21T00:27:12.567Z,46.0853
2019-04-21T00:28:24.693Z,46.3050
2019-04-21T00:29:34.216Z,46.5522
2019-04-21T00:30:42.548Z,46.9505
2019-04-21T00:31:42.229Z,47.2770
2019-04-21T00:32:46.301Z,47.5410
2019-04-21T00:33:45.046Z,47.2023
2019-04-21T00:34:56.263Z,47.5059
2019-04-21T00:36:05.052Z,47.5822
2019-04-21T00:37:17.997Z,47.1427
2019-04-21T00:38:40.220Z,47.1748
2019-04-21T00:39:48.887Z,47.2618
2019-04-21T00:40:56.499Z,46.3874
2019-04-21T00:41:59.871Z,46.5385
2019-04-21T00:43:03.670Z,46.2821
2019-04-21T00:44:08.749Z,46.0945
2019-04-21T00:45:18.217Z,45.6092
2019-04-21T00:46:23.374Z,44.6616
2019-04-21T00:47:38.722Z,43.7324
2019-04-21T00:48:47.549Z,43.1662
2019-04-21T00:49:56.550Z,43.3127
2019-04-21T00:51:16.652Z,42.9603
2019-04-21T00:52:24.414Z,43.1296
2019-04-21T00:53:24.651Z,43.3173
2019-04-21T00:54:33.347Z,43.7049
2019-04-21T00:55:38.628Z,44.1276
2019-04-21T00:56:50.050Z,44.8722
2019-04-21T00:57:57.118Z,44.9226
2019-04-21T00:58:59.812Z,45.3910
2019-04-21T01:00:07.350Z,45.8122
2019-04-21T01:01:18.432Z,46.2379
2019-04-21T01:02:24.783Z,45.9571
2019-04-21T01:03:35.719Z,46.4393
2019-04-21T01:04:42.892Z,46.8284
2019-04-21T01:05:53.196Z,46.9459
2019-04-21T01:06:56.123Z,46.9413
2019-04-21T01:08:04.890Z,46.9871
2019-04-21T01:09:09.532Z,47.2892
2019-04-21T01:10:09.602Z,47.2755
2019-04-21T01:11:26.613Z,47.0985
2019-04-21T01:12:37.322Z,47.0191
2019-04-21T01:13:47.073Z,47.0146
2019-04-21T01:14:57.002Z,47.5364
2019-04-21T01:15:59.796Z,47.1534
2019-04-21T01:17:15.763Z,47.3869
2019-04-21T01:18:16.832Z,47.4220
2019-04-21T01:19:17.248Z,47.6097
2019-04-21T01:20:16.900Z,47.4449
2019-04-21T01:21:18.360Z,47.6661
2019-04-21T01:22:21.301Z,47.9454
2019-04-21T01:23:23.441Z,48.2551
2019-04-21T01:24:32.487Z,48.1376
2019-04-21T01:25:43.701Z,48.2979
2019-04-21T01:26:50.956Z,48.6763
2019-04-21T01:28:07.275Z,48.7175
2019-04-21T01:29:13.245Z,49.0028
2019-04-21T01:30:29.529Z,49.2592
2019-04-21T01:31:29.620Z,49.6712
2019-04-21T01:32:43.912Z,49.8222
2019-04-21T01:33:50.565Z,50.1183
2019-04-21T01:35:00.727Z,49.8070
2019-04-21T01:36:03.801Z,49.5369
2019-04-21T01:37:10.132Z,49.6941
2019-04-21T01:38:32.736Z,49.9046
2019-04-21T01:39:34.904Z,49.6788
2019-04-21T01:40:41.031Z,49.6010
2019-04-21T01:41:52.549Z,49.7749
2019-04-21T01:42:51.050Z,49.2454
2019-04-21T01:44:01.522Z,49.1997
2019-04-21T01:45:12.468Z,48.9372
2019-04-21T01:46:13.884Z,48.7007
2019-04-21T01:47:23.172Z,49.0806
2019-04-21T01:48:33.319Z,48.8640
2019-04-21T01:49:34.950Z,48.8655
2019-04-21T01:50:49.636Z,48.9189
2019-04-21T01:52:15.518Z,48.6671
2019-04-21T01:53:11.564Z,48.7327
2019-04-21T01:54:16.033Z,48.4291
2019-04-21T01:55:27.804Z,48.8777
2019-04-21T01:56:30.677Z,48.4993
2019-04-21T01:57:37.744Z,48.5451
2019-04-21T01:58:40.551Z,48.7510
2019-04-21T01:59:48.839Z,48.9509
2019-04-21T02:00:56.799Z,48.7495
2019-04-21T02:02:10.919Z,48.7266
2019-04-21T02:03:36.204Z,48.3894
2019-04-21T02:04:34.702Z,48.4062
2019-04-21T02:05:37.488Z,48.2933
2019-04-21T02:06:45.594Z,48.8563
2019-04-21T02:07:49.470Z,48.3055
2019-04-21T02:08:59.047Z,48.5161
2019-04-21T02:10:11.430Z,48.3253
2019-04-21T02:11:17.641Z,48.5863
2019-04-21T02:12:26.503Z,48.3391
2019-04-21T02:13:28.223Z,48.6091
2019-04-21T02:14:45.630Z,48.9143
2019-04-21T02:15:54.481Z,49.2348
2019-04-21T02:18:00.701Z,49.2988
2019-04-21T02:19:08.358Z,49.2851
2019-04-21T02:20:12.310Z,49.0578
2019-04-21T02:21:21.494Z,49.4270
2019-04-21T02:22:46.369Z,49.0166
2019-04-21T02:23:46.526Z,48.9296
2019-04-21T02:24:58.012Z,49.1569
2019-04-21T02:25:57.785Z,49.0028
2019-04-21T02:27:07.144Z,49.3370
2019-04-21T02:28:24.421Z,49.3919
2019-04-21T02:29:29.546Z,49.4041
2019-04-21T02:30:50.104Z,49.8039
2019-04-21T02:31:50.440Z,49.2134
2019-04-21T02:33:00.202Z,48.4810
2019-04-21T02:35:25.640Z,48.9281
2019-04-21T02:36:30.899Z,49.1218
2019-04-21T02:37:40.174Z,49.1676
2019-04-21T02:38:44.853Z,49.2958
2019-04-21T02:39:51.351Z,49.3416
2019-04-21T02:43:11.359Z,49.4606
2019-04-21T02:44:23.385Z,49.0898
2019-04-21T02:45:27.954Z,49.0440
2019-04-21T02:46:42.058Z,48.8380
2019-04-21T02:47:45.896Z,49.0852
2019-04-21T02:48:55.853Z,49.1539
2019-04-21T02:51:01.672Z,49.8802
2019-04-21T02:54:48.191Z,49.2897
2019-04-21T02:55:36.405Z,48.6854
2019-04-21T02:57:01.256Z,48.4428
2019-04-21T02:57:59.484Z,48.1331
2019-04-21T02:59:03.159Z,47.9957
2019-04-21T03:01:25.975Z,47.8309
2019-04-21T03:02:34.904Z,48.0827
2019-04-21T03:04:53.247Z,48.4672
2019-04-21T03:05:52.993Z,48.6778
2019-04-21T03:07:07.156Z,48.8273
2019-04-21T03:08:03.641Z,48.7861
2019-04-21T03:09:20.548Z,49.1035
2019-04-21T03:10:24.657Z,49.3507
2019-04-21T03:11:28.631Z,49.1493
2019-04-21T03:12:28.694Z,49.6208
2019-04-21T03:16:09.686Z,49.5613
2019-04-21T03:18:26.542Z,49.7383
2019-04-21T03:19:30.793Z,49.7490
2019-04-21T03:20:33.600Z,49.8299
2019-04-21T03:21:41.547Z,49.9458
2019-04-21T03:22:57.588Z,50.1701
2019-04-21T03:26:24.971Z,50.3716
2019-04-21T03:27:35.571Z,50.7424
2019-04-21T03:28:32.262Z,50.6859
2019-04-21T03:29:36.987Z,50.7469
2019-04-21T03:31:08.983Z,51.0811
2019-04-21T03:32:19.116Z,51.0796
2019-04-21T03:33:46.951Z,51.3497
2019-04-21T03:34:51.220Z,51.5297
2019-04-21T03:35:49.174Z,51.2261
2019-04-21T03:37:42.406Z,51.3542
2019-04-21T03:38:43.097Z,51.1162
2019-04-21T03:39:50.796Z,51.1727
2019-04-21T03:40:57.313Z,50.8156
2019-04-21T03:42:19.613Z,51.2184
2019-04-21T03:43:16.622Z,51.0384
2019-04-21T03:44:22.937Z,51.1589
2019-04-21T03:45:36.157Z,51.2627
2019-04-21T03:46:41.967Z,51.0628
2019-04-21T03:47:44.876Z,51.0811
2019-04-21T03:49:02.373Z,51.4961
2019-04-21T03:51:13.774Z,51.6487
2019-04-21T03:53:24.765Z,51.4870
2019-04-21T03:54:36.897Z,51.1589
2019-04-21T03:59:03.699Z,51.5160
2019-04-21T04:00:20.874Z,51.9554
2019-04-21T04:01:32.459Z,52.0974
2019-04-21T04:02:34.485Z,51.8685
2019-04-21T04:04:49.598Z,52.3674
2019-04-21T04:06:07.996Z,52.4941
2019-04-21T04:07:28.880Z,52.3766
2019-04-21T04:08:21.807Z,52.4529
2019-04-21T04:12:48.659Z,52.8511
2019-04-21T04:13:55.980Z,53.0251
2019-04-21T04:14:54.303Z,53.3288
2019-04-21T04:16:07.055Z,53.3547
2019-04-21T04:17:17.019Z,53.4096
2019-04-21T04:18:36.234Z,53.4386
2019-04-21T04:19:33.907Z,53.5714
2019-04-21T04:20:36.891Z,53.4936
2019-04-21T04:22:20.717Z,53.5485
2019-04-21T04:22:56.346Z,53.5073
2019-04-21T04:25:11.520Z,53.8216
2019-04-21T04:26:29.227Z,53.8216
2019-04-21T04:29:39.812Z,53.6126
2019-04-21T04:30:52.454Z,53.7255
2019-04-21T04:32:00.095Z,53.8399
2019-04-21T04:33:09.939Z,53.7758
2019-04-21T04:34:21.960Z,53.5119
2019-04-21T04:36:46.537Z,53.7682
2019-04-21T04:37:50.626Z,53.1777
2019-04-21T04:39:02.729Z,52.6833
2019-04-21T04:40:02.888Z,52.9900
2019-04-21T04:41:09.749Z,52.9793
2019-04-21T04:43:24.998Z,52.7428
2019-04-21T04:44:47.195Z,52.9244
2019-04-21T04:45:38.766Z,53.1167
2019-04-21T04:49:11.120Z,52.4315
2019-04-21T04:50:08.245Z,52.4361
2019-04-21T04:51:23.014Z,51.9722
2019-04-21T04:52:32.495Z,51.7708
2019-04-21T04:53:42.649Z,51.7067
2019-04-21T04:55:48.042Z,51.2032
2019-04-21T04:57:08.481Z,51.4427
2019-04-21T05:01:51.245Z,51.4931
2019-04-21T05:02:40.212Z,51.2810
2019-04-21T05:03:51.006Z,51.2123
2019-04-21T05:06:11.950Z,51.4290
2019-04-21T05:07:18.750Z,51.1986
2019-04-21T05:09:23.486Z,51.1070
2019-04-21T05:10:57.459Z,51.4000
2019-04-21T05:12:51.233Z,51.2947
2019-04-21T05:14:06.323Z,51.2825
2019-04-21T05:16:30.792Z,51.6701
2019-04-21T05:18:34.793Z,51.5938
2019-04-21T05:19:51.543Z,51.6838
2019-04-21T05:20:58.961Z,51.5892
2019-04-21T05:21:45.431Z,51.8029
2019-04-21T05:22:56.383Z,51.6289
2019-04-21T05:23:55.820Z,51.5572
2019-04-21T05:25:06.828Z,51.7128
2019-04-21T05:26:13.289Z,51.5190
2019-04-21T05:27:23.798Z,51.2596
2019-04-21T05:28:29.855Z,51.1803
2019-04-21T05:29:51.191Z,50.9514
2019-04-21T05:30:59.657Z,50.9651
2019-04-21T05:32:03.522Z,51.0109
2019-04-21T05:33:09.294Z,50.5135
2019-04-21T05:34:18.869Z,50.7134
2019-04-21T05:35:20.057Z,50.6630
2019-04-21T05:36:27.904Z,50.5776
2019-04-21T05:37:35.339Z,49.8161
2019-04-21T05:38:42.981Z,50.0130
2019-04-21T05:39:51.186Z,49.3828
2019-04-21T05:40:55.277Z,49.0578
2019-04-21T05:41:58.626Z,49.4682
2019-04-21T05:43:26.371Z,49.5094
2019-04-21T05:44:35.534Z,48.9372
2019-04-21T05:45:33.549Z,48.7312
2019-04-21T05:46:49.545Z,49.0974
2019-04-21T05:47:55.816Z,49.3141
2019-04-21T05:49:00.890Z,49.0883
2019-04-21T05:50:00.865Z,48.7190
2019-04-21T05:51:10.176Z,48.7419
2019-04-21T05:52:19.880Z,49.5293
2019-04-21T05:54:44.095Z,48.6595
2019-04-21T05:55:49.151Z,48.4977
2019-04-21T05:56:58.097Z,48.4749
2019-04-21T05:58:02.730Z,48.3665
2019-04-21T05:59:07.728Z,48.4169
2019-04-21T06:00:29.514Z,48.2826
2019-04-21T06:01:33.313Z,48.3742
2019-04-21T06:02:38.724Z,48.0674
2019-04-21T06:06:10.075Z,47.5868
2019-04-21T06:07:16.560Z,47.4647
2019-04-21T06:08:20.384Z,47.3091
2019-04-21T06:09:32.493Z,47.2526
2019-04-21T06:10:38.064Z,47.2129
2019-04-21T06:11:36.605Z,47.0970
2019-04-21T06:12:52.167Z,46.7643
2019-04-21T06:15:25.906Z,46.8864
2019-04-21T06:16:30.208Z,46.6041
2019-04-21T06:17:26.850Z,46.2837
2019-04-21T06:18:37.994Z,47.0115
2019-04-21T06:19:44.396Z,46.8513
2019-04-21T06:20:46.721Z,47.0207
2019-04-21T06:21:51.349Z,46.4607
2019-04-21T06:22:56.632Z,46.3691
2019-04-21T06:24:03.988Z,46.3066
2019-04-21T06:27:44.346Z,46.5568
2019-04-21T06:29:49.131Z,47.4311
2019-04-21T06:31:05.517Z,47.5456
2019-04-21T06:32:22.031Z,47.6387
2019-04-21T06:33:04.992Z,47.5685
2019-04-21T06:34:27.852Z,47.0390
2019-04-21T06:35:42.352Z,47.5013
2019-04-21T06:36:42.266Z,47.4357
2019-04-21T06:37:59.863Z,47.6341
2019-04-21T06:39:06.360Z,48.1315
2019-04-21T06:41:11.419Z,47.4128
2019-04-21T06:42:14.982Z,47.1748
2019-04-21T06:43:33.283Z,47.3136
2019-04-21T06:44:33.185Z,46.9154
2019-04-21T06:45:41.207Z,46.9245
2019-04-21T06:46:49.005Z,46.6484
2019-04-21T06:47:57.593Z,46.8055
2019-04-21T06:49:02.738Z,46.7857
2019-04-21T06:50:20.641Z,46.7918
2019-04-21T06:51:23.966Z,46.5629
2019-04-21T06:52:51.735Z,46.9520
2019-04-21T06:53:44.880Z,46.8513
2019-04-21T06:54:53.557Z,46.4347
2019-04-21T06:55:52.416Z,46.8788
2019-04-21T06:56:58.510Z,46.3783
2019-04-21T06:58:08.294Z,46.2058
2019-04-21T06:59:09.617Z,46.3340
2019-04-21T07:00:22.692Z,46.3935
2019-04-21T07:01:39.267Z,46.1082
2019-04-21T07:03:02.730Z,46.4652
2019-04-21T07:04:00.136Z,46.5248
2019-04-21T07:04:54.677Z,46.7918
2019-04-21T07:06:08.119Z,46.5248
2019-04-21T07:07:12.336Z,47.0191
2019-04-21T07:08:29.015Z,46.5721
2019-04-21T07:09:56.968Z,46.7170
2019-04-21T07:10:31.808Z,46.7124
2019-04-21T07:11:37.912Z,46.8406
2019-04-21T07:12:51.364Z,46.9062
2019-04-21T07:14:13.546Z,47.2038
2019-04-21T07:15:04.027Z,46.8589
2019-04-21T07:16:20.034Z,47.1626
2019-04-21T07:17:30.720Z,47.4128
2019-04-21T07:18:39.790Z,47.3945
2019-04-21T07:19:43.597Z,47.4327
2019-04-21T07:20:51.837Z,47.4189
2019-04-21T07:21:56.736Z,47.6753
2019-04-21T07:23:03.263Z,47.8675
2019-04-21T07:24:14.484Z,47.7790
2019-04-21T07:25:26.347Z,48.2918
2019-04-21T07:26:32.760Z,48.0232
2019-04-21T07:27:35.313Z,47.7745
2019-04-21T07:28:49.844Z,47.7562
2019-04-21T07:29:56.693Z,47.4144
2019-04-21T07:31:04.992Z,48.2963
2019-04-21T07:32:12.720Z,47.9759
2019-04-21T07:33:33.377Z,48.1178
2019-04-21T07:34:28.107Z,48.2246
2019-04-21T07:35:32.021Z,47.7699
2019-04-21T07:36:48.057Z,47.8157
2019-04-21T07:37:52.364Z,47.9484
2019-04-21T07:38:49.868Z,48.1773
2019-04-21T07:40:03.386Z,47.5364
2019-04-21T07:41:02.162Z,47.9988
2019-04-21T07:42:13.245Z,47.8355
2019-04-21T07:43:20.234Z,47.6799
2019-04-21T07:44:28.535Z,48.2185
2019-04-21T07:45:36.658Z,48.2780
2019-04-21T07:46:46.999Z,48.3055
2019-04-21T07:47:55.280Z,48.5390
2019-04-21T07:49:07.935Z,48.0186
2019-04-21T07:50:14.720Z,48.3299
2019-04-21T07:51:25.181Z,48.3787
2019-04-21T07:52:34.597Z,47.7531
2019-04-21T07:53:48.243Z,47.8798
2019-04-21T07:54:57.385Z,47.6097
2019-04-21T07:55:35.802Z,47.6188
2019-04-21T07:56:56.068Z,47.4647
2019-04-21T07:58:10.850Z,46.5721
2019-04-21T07:59:22.919Z,46.4942
2019-04-21T08:00:29.036Z,46.9871
2019-04-21T08:01:37.112Z,47.2587
2019-04-21T08:02:40.384Z,46.8635
2019-04-21T08:03:54.458Z,47.0832
2019-04-21T08:05:05.546Z,46.2043
2019-04-21T08:06:02.397Z,46.7445
2019-04-21T08:07:12.842Z,46.3462
2019-04-21T08:08:20.819Z,46.2135
2019-04-21T08:09:27.506Z,46.1723
2019-04-21T08:10:32.728Z,45.6962
2019-04-21T08:11:43.705Z,46.1967
2019-04-21T08:12:47.356Z,45.9632
2019-04-21T08:14:00.772Z,45.5100
2019-04-21T08:15:15.524Z,44.9973
2019-04-21T08:16:21.142Z,45.1209
2019-04-21T08:17:24.599Z,45.3956
2019-04-21T08:18:33.495Z,45.3849
2019-04-21T08:19:38.227Z,45.6230
2019-04-21T08:20:48.009Z,45.9312
2019-04-21T08:22:07.406Z,45.1118
2019-04-21T08:23:10.015Z,44.7959
2019-04-21T08:24:14.713Z,45.2338
2019-04-21T08:25:21.874Z,45.7893
2019-04-21T08:26:39.830Z,45.1926
2019-04-21T08:27:40.412Z,44.2039
2019-04-21T08:28:47.463Z,44.5838
2019-04-21T08:29:53.808Z,43.9948
2019-04-21T08:31:03.179Z,44.7807
2019-04-21T08:33:25.065Z,44.3290
2019-04-21T08:34:30.550Z,44.4373
2019-04-21T08:36:00.865Z,44.0940
2019-04-21T08:36:40.108Z,44.3976
2019-04-21T08:37:50.291Z,43.9490
2019-04-21T08:38:59.684Z,43.8209
2019-04-21T08:40:09.388Z,43.6179
2019-04-21T08:41:12.441Z,43.2837
2019-04-21T08:42:28.392Z,43.2151
2019-04-21T08:43:35.519Z,43.3249
2019-04-21T08:44:40.457Z,43.2151
2019-04-21T08:45:49.700Z,42.8687
2019-04-21T08:46:59.751Z,42.6627
2019-04-21T08:48:07.336Z,42.5940
2019-04-21T08:49:07.937Z,42.4414
2019-04-21T08:50:21.109Z,42.3316
2019-04-21T08:52:43.013Z,42.5101
2019-04-21T08:53:47.565Z,41.6876
2019-04-21T08:54:57.052Z,41.4343
2019-04-21T08:56:04.447Z,42.1637
2019-04-21T08:57:08.142Z,41.8921
2019-04-21T08:58:21.922Z,41.0269
2019-04-21T08:59:26.765Z,39.2645
2019-04-21T09:00:33.510Z,38.6481
2019-04-21T09:01:47.370Z,38.5794
2019-04-21T09:02:47.307Z,37.7997
2019-04-21T09:03:56.784Z,38.0529
2019-04-21T09:05:04.598Z,37.0474
2019-04-21T09:06:17.183Z,36.9238
2019-04-21T09:07:25.847Z,36.8246
2019-04-21T09:08:37.593Z,37.3724
2019-04-21T09:09:35.235Z,37.6638
2019-04-21T09:10:40.949Z,37.8775
2019-04-21T09:11:54.247Z,37.0748
2019-04-21T09:13:00.265Z,36.9528
2019-04-21T09:14:07.583Z,36.6445
2019-04-21T09:15:14.419Z,35.8450
2019-04-21T09:16:23.678Z,35.7946
2019-04-21T09:17:25.105Z,36.3027
2019-04-21T09:18:33.778Z,37.6638
2019-04-21T09:20:08.005Z,37.7905
2019-04-21T09:20:58.479Z,39.1699
2019-04-21T09:22:00.493Z,39.6414
2019-04-21T09:23:13.381Z,38.9212
2019-04-21T09:24:24.564Z,39.1058
2019-04-21T09:25:33.541Z,39.4308
2019-04-21T09:26:34.332Z,40.0015
2019-04-21T09:27:41.933Z,39.4247
2019-04-21T09:28:45.073Z,40.1679
2019-04-21T09:29:46.762Z,40.6332
2019-04-21T09:30:53.417Z,40.0763
2019-04-21T09:31:59.494Z,40.3449
2019-04-21T09:33:05.655Z,40.2136
2019-04-21T09:34:14.284Z,40.5188
2019-04-21T09:35:19.138Z,39.9695
2019-04-21T09:36:25.427Z,39.5209
2019-04-21T09:37:43.276Z,38.8861
2019-04-21T09:38:42.477Z,38.4543
2019-04-21T09:39:51.722Z,37.6318
2019-04-21T09:40:56.502Z,37.8271
2019-04-21T09:42:03.264Z,38.2406
2019-04-21T09:43:10.287Z,38.1903
2019-04-21T09:44:23.676Z,37.3098
2019-04-21T09:45:24.425Z,37.4334
2019-04-21T09:46:27.631Z,37.1038
2019-04-21T09:47:40.495Z,37.4105
2019-04-21T09:48:50.086Z,38.0346
2019-04-21T09:49:47.318Z,38.0056
2019-04-21T09:50:50.461Z,38.4375
2019-04-21T09:51:53.314Z,36.9696
2019-04-21T09:53:03.910Z,37.4319
2019-04-21T09:54:09.850Z,37.9782
2019-04-21T09:55:17.500Z,37.7188
2019-04-21T09:56:31.496Z,38.1903
2019-04-21T09:57:40.598Z,37.7874
2019-04-21T09:58:40.777Z,36.3577
2019-04-21T09:59:56.641Z,36.8429
2019-04-21T10:01:01.179Z,36.0967
2019-04-21T10:02:09.760Z,36.4065
2019-04-21T10:03:12.012Z,36.0220
2019-04-21T10:04:16.466Z,36.7376
2019-04-21T10:05:19.299Z,36.2524
2019-04-21T10:06:23.677Z,36.3012
2019-04-21T10:07:31.669Z,35.6710
2019-04-21T10:08:34.410Z,35.6893
2019-04-21T10:09:37.703Z,35.9319
2019-04-21T10:10:40.299Z,36.2066
2019-04-21T10:11:43.847Z,36.0403
2019-04-21T10:12:47.757Z,36.2188
2019-04-21T10:13:51.281Z,36.4950
2019-04-21T10:14:55.309Z,36.3424
2019-04-21T10:15:58.608Z,35.9960
2019-04-21T10:17:03.090Z,35.2728
2019-04-21T10:18:06.394Z,34.2702
2019-04-21T10:19:09.328Z,34.8974
2019-04-21T10:20:13.705Z,34.0352
2019-04-21T10:21:17.468Z,34.4305
2019-04-21T10:22:19.278Z,33.9620
2019-04-21T10:23:23.277Z,34.4289
2019-04-21T10:24:26.450Z,34.2702
2019-04-21T10:25:30.512Z,34.3740
2019-04-21T10:26:33.352Z,35.2300
2019-04-21T10:27:36.967Z,35.4086
2019-04-21T10:28:41.300Z,35.1492
2019-04-21T10:29:45.357Z,36.0494
2019-04-21T10:30:49.350Z,36.8383
2019-04-21T10:31:52.467Z,36.3287
2019-04-21T10:32:56.455Z,34.5480
2019-04-21T10:33:59.299Z,34.8455
2019-04-21T10:35:03.270Z,35.5367
2019-04-21T10:36:06.843Z,35.5917
2019-04-21T10:37:11.237Z,35.4650
2019-04-21T10:38:22.758Z,35.2361
2019-04-21T10:39:22.331Z,35.0057
2019-04-21T10:40:25.546Z,35.3826
2019-04-21T10:41:27.546Z,35.4467
2019-04-21T10:42:31.220Z,34.9981
2019-04-21T10:43:35.584Z,35.3628
2019-04-21T10:44:38.862Z,35.2667
2019-04-21T10:45:43.217Z,35.0668
2019-04-21T10:46:47.424Z,34.8180
2019-04-21T10:47:54.709Z,34.8287
2019-04-21T10:48:58.916Z,34.9065
2019-04-21T10:50:02.715Z,35.1019
2019-04-21T10:51:07.424Z,35.1949
2019-04-21T10:52:10.956Z,34.8058
2019-04-21T10:53:14.522Z,34.6349
2019-04-21T10:54:17.862Z,34.4808
2019-04-21T10:56:36.166Z,35.0118
2019-04-21T10:57:38.008Z,35.6100
2019-04-21T10:58:42.411Z,35.1766
2019-04-21T10:59:47.900Z,35.0927
2019-04-21T11:00:54.113Z,34.9783
2019-04-21T11:01:58.957Z,34.9416
2019-04-21T11:03:02.328Z,35.0103
2019-04-21T11:04:07.555Z,35.0469
2019-04-21T11:05:14.509Z,35.0759
2019-04-21T11:06:18.782Z,35.0301
2019-04-21T11:07:26.170Z,35.6298
2019-04-21T11:08:35.718Z,34.6456
2019-04-21T11:09:38.302Z,34.7906
2019-04-21T11:10:41.391Z,34.8608
2019-04-21T11:11:46.397Z,35.4788
2019-04-21T11:12:52.535Z,34.3282
2019-04-21T11:13:56.644Z,34.3755
2019-04-21T11:14:59.335Z,34.1100
2019-04-21T11:16:03.403Z,34.4762
2019-04-21T11:17:06.305Z,34.8959
2019-04-21T11:18:10.159Z,34.7692
2019-04-21T11:19:13.788Z,34.4884
2019-04-21T11:20:17.381Z,34.5998
2019-04-21T11:21:20.857Z,34.2290
2019-04-21T11:22:25.058Z,33.9940
2019-04-21T11:23:29.337Z,33.9315
2019-04-21T11:24:33.253Z,34.3557
2019-04-21T11:25:36.326Z,34.7539
2019-04-21T11:26:40.128Z,34.5434
2019-04-21T11:27:43.331Z,34.2092
2019-04-21T11:28:47.430Z,33.8582
2019-04-21T11:29:51.599Z,33.8491
2019-04-21T11:30:54.893Z,34.2016
2019-04-21T11:31:58.918Z,33.3898
2019-04-21T11:33:01.463Z,33.9345
2019-04-21T11:34:05.131Z,34.3603
2019-04-21T11:35:09.365Z,33.6751
2019-04-21T11:36:13.369Z,33.3532
2019-04-21T11:37:16.481Z,33.4508
2019-04-21T11:38:23.306Z,33.9208
2019-04-21T11:39:38.894Z,32.6863
2019-04-21T11:40:36.039Z,32.3705
2019-04-21T11:41:39.425Z,31.8425
2019-04-21T11:42:42.267Z,31.6747
2019-04-21T11:43:45.445Z,32.9595
2019-04-21T11:44:49.417Z,32.9595
2019-04-21T11:45:52.591Z,32.4941
2019-04-21T11:46:54.473Z,30.9407
2019-04-21T11:47:58.444Z,31.3481
2019-04-21T11:49:02.423Z,31.5816
2019-04-21T11:50:05.348Z,31.0979
2019-04-21T11:51:09.018Z,30.9926
2019-04-21T11:52:13.299Z,30.7866
2019-04-21T11:53:16.858Z,30.9697
2019-04-21T11:54:20.273Z,31.4122
2019-04-21T11:55:29.511Z,31.4122
2019-04-21T11:56:32.626Z,30.7225
2019-04-21T11:57:40.152Z,30.1274
2019-04-21T11:58:43.922Z,29.9794
2019-04-21T11:59:46.290Z,30.3059
2019-04-21T12:00:50.877Z,30.8080
2019-04-21T12:01:54.310Z,30.2541
2019-04-21T12:02:57.687Z,29.6696
2019-04-21T12:04:00.289Z,30.0175
2019-04-21T12:05:03.636Z,29.3980
2019-04-21T12:06:06.327Z,28.6702
2019-04-21T12:07:09.273Z,29.7063
2019-04-21T12:08:22.932Z,28.7129
2019-04-21T12:09:20.994Z,29.0700
2019-04-21T12:10:24.309Z,29.2714
2019-04-21T12:11:27.356Z,29.7093
2019-04-21T12:12:30.315Z,30.1442
2019-04-21T12:13:34.226Z,29.2699
2019-04-21T12:14:37.312Z,29.5445
2019-04-21T12:15:39.300Z,29.5766
2019-04-21T12:16:43.297Z,29.2576
2019-04-21T12:17:46.298Z,29.3614
2019-04-21T12:18:49.302Z,28.9326
2019-04-21T12:19:52.640Z,28.7755
2019-04-21T12:20:55.681Z,28.6244
2019-04-21T12:22:09.939Z,28.8396
2019-04-21T12:23:08.706Z,29.2668
2019-04-21T12:24:13.243Z,28.3558
2019-04-21T12:25:16.281Z,28.5832
2019-04-21T12:26:20.361Z,28.3467
2019-04-21T12:27:23.277Z,28.6748
2019-04-21T12:28:26.336Z,29.0730
2019-04-21T12:29:30.619Z,28.0201
2019-04-21T12:30:33.620Z,28.2490
2019-04-21T12:31:36.286Z,28.8273
2019-04-21T12:32:40.177Z,28.1437
2019-04-21T12:33:43.608Z,28.1590
2019-04-21T12:34:48.918Z,26.2531
2019-04-21T12:35:55.401Z,27.2938
2019-04-21T12:36:59.114Z,27.1107
2019-04-21T12:38:02.750Z,27.1427
2019-04-21T12:39:08.437Z,27.5090
2019-04-21T12:40:12.762Z,27.5731
2019-04-21T12:41:16.326Z,28.3406
2019-04-21T12:42:20.530Z,28.2231
2019-04-21T12:43:24.390Z,28.4108
2019-04-21T12:44:27.513Z,29.1020
2019-04-21T12:45:31.516Z,29.0867
2019-04-21T12:46:34.359Z,29.1966
2019-04-21T12:47:37.770Z,28.8869
2019-04-21T12:48:42.355Z,29.3431
2019-04-21T12:49:45.589Z,29.1737
2019-04-21T12:50:48.275Z,28.3696
2019-04-21T12:51:51.595Z,27.9606
2019-04-21T12:52:55.738Z,27.4754
2019-04-21T12:53:59.592Z,27.5685
2019-04-21T12:55:03.714Z,27.6585
2019-04-21T12:56:07.486Z,28.2032
2019-04-21T12:57:11.628Z,28.0385
2019-04-21T12:58:15.289Z,26.9078
2019-04-21T12:59:19.106Z,27.1199
2019-04-21T13:00:22.847Z,27.4479
2019-04-21T13:01:27.484Z,26.2364
2019-04-21T13:02:31.611Z,26.7933
2019-04-21T13:03:34.331Z,27.3671
2019-04-21T13:04:37.879Z,27.0146
2019-04-21T13:05:41.324Z,25.4444
2019-04-21T13:06:45.632Z,24.5182
2019-04-21T13:07:49.204Z,24.4190
2019-04-21T13:08:59.676Z,23.6179
2019-04-21T13:10:00.325Z,23.5584
2019-04-21T13:11:04.348Z,23.6545
2019-04-21T13:12:07.376Z,22.9709
2019-04-21T13:13:10.295Z,25.2461
2019-04-21T13:14:13.677Z,23.3143
2019-04-21T13:15:17.744Z,23.4302
2019-04-21T13:16:21.305Z,23.4669
2019-04-21T13:17:25.530Z,23.9200
2019-04-21T13:18:29.123Z,21.6251
2019-04-21T13:19:33.438Z,22.5040
2019-04-21T13:20:36.310Z,23.1403
2019-04-21T13:21:40.284Z,22.2705
2019-04-21T13:22:43.838Z,21.7411
2019-04-21T13:23:47.318Z,22.5238
2019-04-21T13:24:51.641Z,22.2660
2019-04-21T13:25:54.295Z,21.4099
2019-04-21T13:26:59.777Z,21.4237
2019-04-21T13:28:05.009Z,22.1424
2019-04-21T13:29:08.316Z,21.8860
2019-04-21T13:30:14.560Z,22.0142
2019-04-21T13:31:18.193Z,20.6134
2019-04-21T13:32:21.298Z,20.6607
2019-04-21T13:33:25.159Z,19.0539
2019-04-21T13:34:28.335Z,20.1389
2019-04-21T13:35:33.019Z,20.9384
2019-04-21T13:36:36.337Z,21.4252
2019-04-21T13:37:39.629Z,23.2456
2019-04-21T13:38:58.125Z,23.2227
2019-04-21T13:40:14.406Z,22.4491
2019-04-21T13:41:15.073Z,23.5706
2019-04-21T13:42:16.557Z,24.4221
2019-04-21T13:43:14.943Z,23.7003
2019-04-21T13:44:19.621Z,23.8148
2019-04-21T13:45:24.008Z,23.9597
2019-04-21T13:46:28.823Z,23.4531
2019-04-21T13:47:32.570Z,23.3158
2019-04-21T13:48:36.782Z,24.1474
2019-04-21T13:49:41.471Z,24.0162
2019-04-21T13:50:44.351Z,22.9267
2019-04-21T13:51:46.318Z,22.7481
2019-04-21T13:52:51.123Z,22.6886
2019-04-21T13:53:53.589Z,22.8214
2019-04-21T13:54:57.743Z,21.1765
2019-04-21T13:56:02.595Z,22.1897
2019-04-21T13:57:05.354Z,22.1332
2019-04-21T13:58:08.593Z,22.0325
2019-04-21T13:59:11.318Z,21.9226
2019-04-21T14:00:15.125Z,22.3453
2019-04-21T14:01:18.281Z,22.4186
2019-04-21T14:02:22.609Z,23.0579
2019-04-21T14:03:26.280Z,22.0005
2019-04-21T14:04:29.610Z,21.8814
2019-04-21T14:05:32.701Z,21.7227
2019-04-21T14:06:36.380Z,21.7685
2019-04-21T14:07:39.359Z,20.9705
2019-04-21T14:08:44.894Z,20.5356
2019-04-21T14:09:56.087Z,21.0208
2019-04-21T14:10:57.546Z,21.8051
2019-04-21T14:12:01.366Z,21.2970
2019-04-21T14:13:04.662Z,21.3336
2019-04-21T14:14:08.243Z,21.6861
2019-04-21T14:15:12.458Z,21.4649
2019-04-21T14:16:16.029Z,20.9537
2019-04-21T14:17:19.346Z,21.4481
2019-04-21T14:18:22.666Z,21.5106
2019-04-21T14:19:27.697Z,21.7212
2019-04-21T14:20:31.290Z,21.3062
2019-04-21T14:21:34.318Z,21.6526
2019-04-21T14:22:38.082Z,21.3138
2019-04-21T14:23:45.990Z,21.8677